Sunday, October 26, 2014
06:04 UTC
  |  Log In   |  Register Free
Airport Search:

Olympia Regional Airport
(KOLM)

Airport information sponsored by:
Glacier Jet Center at Olympia Regional (KOLM), Olympia, WA
FAA data valid effective September 18, 2014 - November 13, 2014 (unless otherwise noted).

 
 
 
 
 
 
 
 
 
 
 
 
 
 

Current Aviation Weather for Olympia Regional Airport (KOLM)

The most recent METAR observation for KOLM was updated at: 0512
METAR Summary (Translated METAR)
KOLM
260454Z AUTO 22009KT 10SM CLR 11/08 A2970 RMK AO2 SLP059 T01060083
KGRF
260459Z AUTO 17014G18KT 10SM CLR 11/09 A2968 RMK AO2 $
(14.7 nm NE from KOLM)
KCLS
260455Z AUTO 23003KT 10SM FEW028 SCT038 SCT045 10/09 A2974 RMK AO2
(17.9 nm SW from KOLM)
TAF Summary (Translated TAF)
KOLM
251735Z 2518/2618 02006KT P6SM SCT030 OVC070 TEMPO 2518/2520 4SM -RA BR SCT003 BKN030 OVC060 FM252000 04008KT P6SM -RA SCT020 OVC040 TEMPO 2521/2601 4SM -RA BR OVC020 FM260100 20020G30KT P6SM -RA SCT020 BKN035 OVC060 FM261300 23012G20KT P6SM -SHRA BKN015 BKN035
KGRF
(14.7 nm NE from KOLM)
2605/2711 18015G25KT 9999 SCT030 BKN100 610604 510009 QNH2946INS TEMPO 2605/2608 20025G35KT 520009 BECMG 2608/2609 21015G25KT 9000 -SHRA BKN030 610505 520009 QNH2974INS BECMG 2618/2619 22015G25KT 9999 NSW OVC040 610505 510009 QNH2992INS BECMG 2619/2620 25015G25KT 9999 SCT010 BKN020 610505 510009 QNH2993INS BECMG 2623/2624 24010G15KT 9999 OVC015 610505 QNH3000INS BECMG 2705/2706 15009KT 9999 OVC005 610505 QNH3011INS TX13/2605Z TN09/2707Z
  Airport Weather Conditions for KOLM

 Current Weather at OLM
51° F
Fair
Southwest winds at 10.4 mph
OLM NOAA Radar

Pressure: 29.70 in
Humidity: 86%
Wind: Southwest at 10.4 MPH (9 KT)
Dew Point: 46.9°F
Visibility: 10.00 mi


Airport Weather Forecast for KOLM

Translated METAR and TAF for KOLM
Translated METAR for KOLM (0559 UTC 26 October 2014)
found at http://aviationweather.gov/adds/metars/
 
METAR text: KOLM 260554Z AUTO 21008G16KT 10SM -RA FEW027 BKN044 BKN060 11/08 A2975 RMK AO2 RAB03E17B41 SLP075 P0001 60033 T01060078 10156 20100 51066
Conditions at: KOLM (OLYMPIA , WA, US) observed 0554 UTC 26 October 2014
Temperature: 10.6°C (51°F)
Dewpoint: 7.8°C (46°F) [RH = 83%]
Pressure (altimeter): 29.75 inches Hg (1007.5 mb)
[Sea-level pressure: 1007.5 mb]
Winds: from the SSW (210 degrees) at 9 MPH (8 knots; 4.2 m/s)
gusting to 18 MPH (16 knots; 8.3 m/s)
Visibility: 10 or more miles (16+ km)
Ceiling: 4400 feet AGL
Clouds: few clouds at 2700 feet AGL
broken clouds at 4400 feet AGL
broken clouds at 6000 feet AGL
Weather: -RA  (light rain)
Translated TAF for KOLM
Forecast for: KOLM (OLYMPIA , WA, US)
TAF Text: KOLM 260536Z 2606/2706 22012G22KT P6SM SCT020 BKN035 BKN060
Forecast period: 0600 to 1000 UTC 26 October 2014
Forecast type: FROM: standard forecast or significant change
Winds: from the SW (220 degrees) at 14 MPH (12 knots; 6.2 m/s)
gusting to 25 MPH (22 knots; 11.4 m/s)
Visibility: 6 or more miles (10+ km)
Ceiling: 3500 feet AGL
Clouds: scattered clouds at 2000 feet AGL
broken clouds at 3500 feet AGL
broken clouds at 6000 feet AGL
Weather: no significant weather forecast for this period
TAF Text: TEMPO 2606/2610 -SHRA BKN020 BKN035 BKN060
Forecast period: 0600 to 1000 UTC 26 October 2014
Forecast type: TEMPORARY: The following changes expected for less than half the time period
Ceiling: 2000 feet AGL
Clouds: broken clouds at 2000 feet AGL
broken clouds at 3500 feet AGL
broken clouds at 6000 feet AGL
Weather: -SHRA  (light rain showers)
TAF Text: FM261000 21012KT P6SM -SHRA BKN020 BKN035
Forecast period: 1000 to 1800 UTC 26 October 2014
Forecast type: FROM: standard forecast or significant change
Winds: from the SSW (210 degrees) at 14 MPH (12 knots; 6.2 m/s)
Visibility: 6 or more miles (10+ km)
Ceiling: 2000 feet AGL
Clouds: broken clouds at 2000 feet AGL
broken clouds at 3500 feet AGL
Weather: -SHRA  (light rain showers)
TAF Text: FM261800 23010KT P6SM -SHRA SCT025 BKN040
Forecast period: 1800 UTC 26 October 2014 to 0600 UTC 27 October 2014
Forecast type: FROM: standard forecast or significant change
Winds: from the SW (230 degrees) at 12 MPH (10 knots; 5.2 m/s)
Visibility: 6 or more miles (10+ km)
Ceiling: 4000 feet AGL
Clouds: scattered clouds at 2500 feet AGL
broken clouds at 4000 feet AGL
Weather: -SHRA  (light rain showers)

Find All Airport Services Find A Hotel Find A Rental Car Find A Golf Course Find A Restaurant $100 Hamburger



FBO's on the Field
FBO Company Facility Photos Services Transportation Aviation Fuel Prices: Prices include tax
Catering Weather Repair Courtesy Rental Type 100LL JetA JetA+ MOGAS 8087
 
Glacier Jet Center

Glacier Jet Center logo
Currently rated 3.6 by 1 person
FS:
Last Updated: Oct-07
Login to update fuel prices
SS:
Contact Glacier Jet CenterMore FBO Information
 
Jorgensen Air Service

Jorgensen Air Service logo
Currently rated 4.7 by 3 people
FS:
Last Updated: Oct-08
Login to update fuel prices
SS:
Contact Jorgensen Air ServiceMore FBO Information
 
Add another FBO Facility Photos Catering Weather Repair Courtesy Rental Type 100LL JetA JetA+ MOGAS 8087
Services Transportation Aviation Fuel Prices: Prices include tax


model-print
model-print
model-print
model-print